Time;durP1;ratioP1;P1;durP2;ratioP2;P2;SDS_P1;SDS_P2;PMS_P1;PMS_P2;Temp;Humidity;BMP_temperature;BMP_pressure;BME280_temperature;BME280_humidity;BME280_pressure;Samples;Min_cycle;Max_cycle;Signal;HPM_P1;HPM_P2
2021/12/28 00:01:22;;;;;;;;;;;;;;;5.27;82.47;94625.13;5115837;28;968;-45
2021/12/28 00:03:48;;;;;;;;;;;;;;;5.33;83.40;94620.22;5115890;28;984;-45
2021/12/28 00:06:14;;;;;;;;;;;;;;;5.48;83.64;94613.50;5115400;28;996;-47
2021/12/28 00:08:41;;;;;;;;;;;;;;;5.45;82.12;94616.44;5115441;28;1082;-46
2021/12/28 00:11:07;;;;;;;;;;;;;;;5.00;78.90;94627.66;5115189;28;1274;-46
2021/12/28 00:13:34;;;;;;;;;;;;;;;4.98;82.10;94626.97;5115548;28;1112;-47
2021/12/28 00:16:13;;;;;;;;;;;;;;;5.19;83.09;94621.50;5115250;28;1028;-47
2021/12/28 00:18:39;;;;;;;;;;;;;;;5.35;83.02;94615.63;5115333;28;1902;-47
2021/12/28 00:21:06;;;;;;;;;;;;;;;5.24;83.00;94622.75;5114485;28;1020;-46
2021/12/28 00:23:38;;;;;;;;;;;;;;;5.24;83.35;94628.06;5115457;28;1035;-46
2021/12/28 00:26:08;;;;;;;;;;;;;;;5.42;84.17;94636.09;5115008;28;1078;-46
2021/12/28 00:28:35;;;;;;;;;;;;;;;5.55;81.46;94643.78;5115377;28;997;-47
2021/12/28 00:31:01;;;;;;;;;;;;;;;5.06;81.27;94641.16;5115238;28;992;-45
2021/12/28 00:33:27;;;;;;;;;;;;;;;5.03;83.29;94652.06;5114962;28;1038;-47
2021/12/28 00:35:53;;;;;;;;;;;;;;;5.01;83.53;94651.38;5115248;28;1076;-47
2021/12/28 00:38:22;;;;;;;;;;;;;;;4.92;82.21;94654.03;5114864;28;1910;-45
2021/12/28 00:40:49;;;;;;;;;;;;;;;4.67;80.61;94656.22;5114860;28;1075;-46
2021/12/28 00:43:15;;;;;;;;;;;;;;;4.58;82.86;94659.69;5114674;28;1111;-46
2021/12/28 00:45:41;;;;;;;;;;;;;;;4.64;83.56;94667.09;5114796;28;1032;-46
2021/12/28 00:48:08;;;;;;;;;;;;;;;4.44;81.97;94661.75;5114485;28;1028;-46
2021/12/28 00:50:34;;;;;;;;;;;;;;;4.35;83.19;94669.69;5115034;28;1063;-46
2021/12/28 00:53:00;;;;;;;;;;;;;;;4.44;84.62;94669.69;5114550;28;1229;-46
2021/12/28 00:55:26;;;;;;;;;;;;;;;4.55;86.23;94671.38;5114828;28;1191;-46
2021/12/28 00:57:53;;;;;;;;;;;;;;;4.40;82.62;94673.59;5114562;28;1901;-46
2021/12/28 01:00:30;;;;;;;;;;;;;;;4.31;86.82;94666.47;5114651;28;976;-46
2021/12/28 01:02:57;;;;;;;;;;;;;;;4.45;86.80;94666.06;5114263;28;1830;-45
2021/12/28 01:05:23;;;;;;;;;;;;;;;4.48;85.01;94663.16;5114763;28;977;-46
2021/12/28 01:07:49;;;;;;;;;;;;;;;4.58;84.86;94662.34;5114315;28;1020;-46
2021/12/28 01:10:20;;;;;;;;;;;;;;;4.53;83.50;94665.38;5114654;28;985;-46
2021/12/28 01:12:46;;;;;;;;;;;;;;;4.58;83.91;94662.34;5114337;28;1204;-46
2021/12/28 01:15:13;;;;;;;;;;;;;;;4.60;84.23;94666.50;5114198;28;1096;-46
2021/12/28 01:17:39;;;;;;;;;;;;;;;4.48;84.32;94670.25;5114351;28;1990;-46
2021/12/28 01:20:07;;;;;;;;;;;;;;;4.54;84.69;94679.47;5114146;28;1027;-46
2021/12/28 01:22:34;;;;;;;;;;;;;;;4.65;84.43;94674.91;5113934;28;1039;-46
2021/12/28 01:25:00;;;;;;;;;;;;;;;4.65;83.19;94680.19;5114092;28;1850;-46
2021/12/28 01:27:26;;;;;;;;;;;;;;;4.56;83.82;94681.00;5113999;28;1019;-46
2021/12/28 01:29:52;;;;;;;;;;;;;;;4.54;83.97;94679.47;5113991;28;1095;-46
2021/12/28 01:32:18;;;;;;;;;;;;;;;4.66;86.28;94681.03;5113342;28;1008;-47
2021/12/28 01:34:44;;;;;;;;;;;;;;;4.68;83.66;94684.38;5113959;28;1027;-46
2021/12/28 01:37:10;;;;;;;;;;;;;;;4.77;84.19;94678.25;5113820;28;1992;-46
2021/12/28 01:39:37;;;;;;;;;;;;;;;4.93;84.16;94668.94;5113961;28;1032;-46
2021/12/28 01:42:05;;;;;;;;;;;;;;;5.02;84.11;94663.63;5114082;28;1018;-46
2021/12/28 01:44:32;;;;;;;;;;;;;;;5.04;83.79;94660.84;5113736;28;1032;-46
2021/12/28 01:46:58;;;;;;;;;;;;;;;5.05;83.95;94658.06;5113856;28;1019;-46
2021/12/28 01:49:24;;;;;;;;;;;;;;;4.70;82.45;94653.28;5114012;28;1297;-46
2021/12/28 01:51:50;;;;;;;;;;;;;;;4.80;85.66;94655.94;5113681;28;1094;-45
2021/12/28 01:54:16;;;;;;;;;;;;;;;5.11;84.92;94659.31;5114140;28;1051;-46
2021/12/28 01:56:44;;;;;;;;;;;;;;;4.98;83.50;94649.00;5113787;28;1917;-46
2021/12/28 01:59:11;;;;;;;;;;;;;;;5.20;84.48;94647.03;5113840;28;1014;-46
2021/12/28 02:01:38;;;;;;;;;;;;;;;5.19;85.19;94658.63;5113728;28;1035;-47
2021/12/28 02:04:13;;;;;;;;;;;;;;;5.11;84.67;94655.84;5113467;28;1027;-46
2021/12/28 02:06:39;;;;;;;;;;;;;;;5.05;84.84;94654.59;5113546;28;1214;-46
2021/12/28 02:09:05;;;;;;;;;;;;;;;5.11;85.30;94661.13;5113685;28;968;-46
2021/12/28 02:11:31;;;;;;;;;;;;;;;5.20;85.75;94660.31;5113586;28;1157;-47
2021/12/28 02:13:58;;;;;;;;;;;;;;;5.21;85.45;94661.97;5113173;28;1108;-47
2021/12/28 02:16:24;;;;;;;;;;;;;;;5.25;85.77;94664.19;5113924;28;968;-47
2021/12/28 02:18:50;;;;;;;;;;;;;;;5.28;85.98;94669.22;5113244;28;1909;-45
2021/12/28 02:21:16;;;;;;;;;;;;;;;5.29;87.17;94667.38;5113632;28;1059;-46
2021/12/28 02:23:42;;;;;;;;;;;;;;;5.31;87.33;94672.53;5113676;28;976;-47
2021/12/28 02:26:09;;;;;;;;;;;;;;;5.33;86.33;94667.94;5113589;28;1055;-46
2021/12/28 02:28:35;;;;;;;;;;;;;;;5.42;86.22;94659.16;5113238;28;972;-47
2021/12/28 02:31:02;;;;;;;;;;;;;;;5.36;86.65;94662.38;5113739;28;1031;-45
2021/12/28 02:33:28;;;;;;;;;;;;;;;5.37;87.04;94658.72;5113437;28;1050;-47
2021/12/28 02:35:58;;;;;;;;;;;;;;;5.34;86.95;94656.38;5113232;28;1189;-47
2021/12/28 02:38:24;;;;;;;;;;;;;;;5.38;87.13;94650.63;5113430;28;1910;-46
2021/12/28 02:40:51;;;;;;;;;;;;;;;5.51;87.06;94639.72;5113363;28;976;-45
2021/12/28 02:43:18;;;;;;;;;;;;;;;5.52;86.72;94649.38;5115157;28;980;-46
2021/12/28 02:45:49;;;;;;;;;;;;;;;5.52;87.70;94640.56;5117343;28;1302;-46
2021/12/28 02:48:16;;;;;;;;;;;;;;;5.48;87.93;94640.00;5117265;28;1004;-46
2021/12/28 02:50:48;;;;;;;;;;;;;;;5.64;86.72;94645.56;5117138;28;991;-45
2021/12/28 02:53:14;;;;;;;;;;;;;;;5.61;86.79;94651.16;5116935;28;965;-45
2021/12/28 02:55:41;;;;;;;;;;;;;;;5.62;86.66;94652.84;5116942;28;1070;-46
2021/12/28 02:58:08;;;;;;;;;;;;;;;5.64;86.25;94644.75;5117028;28;1914;-47
2021/12/28 03:00:37;;;;;;;;;;;;;;;5.70;86.88;94636.19;5117212;27;997;-46
2021/12/28 03:03:05;;;;;;;;;;;;;;;5.72;86.18;94634.25;5116728;28;1096;-45
2021/12/28 03:05:31;;;;;;;;;;;;;;;5.76;85.99;94634.78;5116888;28;1021;-46
2021/12/28 03:07:57;;;;;;;;;;;;;;;5.74;85.70;94634.09;5116703;28;1255;-47
2021/12/28 03:10:23;;;;;;;;;;;;;;;5.68;85.73;94628.38;5117002;28;1011;-45
2021/12/28 03:12:49;;;;;;;;;;;;;;;5.52;85.52;94624.66;5116822;28;1156;-45
2021/12/28 03:15:15;;;;;;;;;;;;;;;5.55;86.31;94627.84;5116343;28;1035;-47
2021/12/28 03:17:41;;;;;;;;;;;;;;;5.61;85.95;94623.78;5116991;27;1984;-45
2021/12/28 03:20:10;;;;;;;;;;;;;;;5.65;86.40;94622.53;5116190;28;1082;-47
2021/12/28 03:22:37;;;;;;;;;;;;;;;5.65;85.89;94623.38;5116495;28;2128;-46
2021/12/28 03:25:04;;;;;;;;;;;;;;;5.64;85.89;94619.03;5116141;28;985;-45
2021/12/28 03:27:30;;;;;;;;;;;;;;;5.55;85.97;94622.56;5116391;28;1027;-47
2021/12/28 03:29:56;;;;;;;;;;;;;;;5.57;86.16;94627.72;5116161;28;1027;-46
2021/12/28 03:32:23;;;;;;;;;;;;;;;5.66;86.87;94626.88;5116287;28;1028;-46
2021/12/28 03:34:49;;;;;;;;;;;;;;;5.73;87.34;94632.41;5116218;28;1058;-47
2021/12/28 03:37:15;;;;;;;;;;;;;;;5.63;86.78;94633.31;5116098;28;1918;-47
2021/12/28 03:39:41;;;;;;;;;;;;;;;5.53;85.22;94639.59;5115904;28;1014;-45
2021/12/28 03:42:08;;;;;;;;;;;;;;;5.34;84.71;94641.28;5116045;28;1078;-45
2021/12/28 03:44:34;;;;;;;;;;;;;;;5.22;85.50;94643.28;5115884;28;1027;-46
2021/12/28 03:47:01;;;;;;;;;;;;;;;5.26;85.39;94647.31;5116248;28;983;-46
2021/12/28 03:49:27;;;;;;;;;;;;;;;5.31;85.31;94644.22;5115838;28;1067;-45
2021/12/28 03:51:53;;;;;;;;;;;;;;;5.03;86.08;94652.06;5115920;28;1003;-46
2021/12/28 03:54:19;;;;;;;;;;;;;;;4.84;84.95;94654.72;5114693;28;1201;-46
2021/12/28 03:56:45;;;;;;;;;;;;;;;4.86;85.30;94650.13;5116024;28;1081;-45
2021/12/28 03:59:11;;;;;;;;;;;;;;;4.98;86.01;94650.81;5115589;28;1052;-46
2021/12/28 04:01:37;;;;;;;;;;;;;;;4.77;82.91;94648.28;5115832;28;1106;-46
2021/12/28 04:04:03;;;;;;;;;;;;;;;4.52;85.55;94652.31;5115350;28;1028;-45
2021/12/28 04:06:30;;;;;;;;;;;;;;;4.45;86.60;94652.00;5115850;28;977;-47
2021/12/28 04:08:58;;;;;;;;;;;;;;;4.46;87.00;94651.88;5115329;28;1059;-46
2021/12/28 04:13:51;;;;;;;;;;;;;;;4.44;87.13;94652.94;5115674;27;1365;-46
2021/12/28 04:16:18;;;;;;;;;;;;;;;4.36;87.49;94648.34;5115292;28;1063;-46
2021/12/28 04:18:44;;;;;;;;;;;;;;;4.31;88.05;94655.88;5115556;28;1938;-46
2021/12/28 04:21:10;;;;;;;;;;;;;;;4.29;87.84;94653.34;5115321;28;993;-46
2021/12/28 04:23:37;;;;;;;;;;;;;;;4.37;87.29;94655.31;5115244;28;1094;-45
2021/12/28 04:26:04;;;;;;;;;;;;;;;4.31;86.63;94653.22;5115297;28;964;-45
2021/12/28 04:28:30;;;;;;;;;;;;;;;4.25;85.54;94651.09;5115375;28;972;-47
2021/12/28 04:30:56;;;;;;;;;;;;;;;4.15;86.56;94647.59;5115182;28;1043;-46
2021/12/28 04:33:22;;;;;;;;;;;;;;;4.30;86.80;94655.00;5115342;28;1051;-45
2021/12/28 04:35:48;;;;;;;;;;;;;;;4.51;86.26;94654.09;5114673;28;1032;-46
2021/12/28 04:38:14;;;;;;;;;;;;;;;4.66;85.99;94646.59;5114873;28;1953;-45
2021/12/28 04:40:40;;;;;;;;;;;;;;;4.63;85.71;94641.56;5115058;28;1047;-46
2021/12/28 04:43:07;;;;;;;;;;;;;;;4.63;85.80;94642.41;5114843;28;1083;-47
2021/12/28 04:45:35;;;;;;;;;;;;;;;4.55;85.82;94646.72;5114685;28;1273;-46
2021/12/28 04:48:02;;;;;;;;;;;;;;;4.66;86.23;94633.34;5114881;28;976;-46
2021/12/28 04:50:28;;;;;;;;;;;;;;;4.78;86.50;94632.28;5114481;28;1189;-45
2021/12/28 04:52:57;;;;;;;;;;;;;;;4.72;85.66;94639.91;5114873;28;1165;-45
2021/12/28 04:55:23;;;;;;;;;;;;;;;4.55;85.84;94647.53;5114485;28;1105;-46
2021/12/28 04:57:49;;;;;;;;;;;;;;;4.58;85.81;94649.09;5114800;28;1998;-45
2021/12/28 05:00:17;;;;;;;;;;;;;;;4.50;85.99;94657.72;5114419;27;1040;-45
2021/12/28 05:02:43;;;;;;;;;;;;;;;4.48;86.53;94651.72;5114873;28;988;-45
2021/12/28 05:05:10;;;;;;;;;;;;;;;4.50;85.65;94653.25;5114215;28;998;-46
2021/12/28 05:07:36;;;;;;;;;;;;;;;4.48;86.50;94643.78;5114738;28;980;-45
2021/12/28 05:10:03;;;;;;;;;;;;;;;4.50;87.37;94645.31;5114403;28;1071;-47
2021/12/28 05:12:29;;;;;;;;;;;;;;;4.48;86.91;94636.69;5114317;28;1846;-47
2021/12/28 05:14:58;;;;;;;;;;;;;;;4.49;86.22;94630.41;5114068;28;1364;-45
2021/12/28 05:17:25;;;;;;;;;;;;;;;4.47;86.51;94637.63;5114559;28;1996;-46
2021/12/28 05:19:51;;;;;;;;;;;;;;;4.45;85.83;94641.41;5114499;28;1059;-46
2021/12/28 05:22:18;;;;;;;;;;;;;;;4.53;86.53;94632.78;5114418;28;1039;-45
2021/12/28 05:24:43;;;;;;;;;;;;;;;4.52;86.33;94645.19;5114095;28;1028;-46
2021/12/28 05:27:10;;;;;;;;;;;;;;;4.34;84.96;94638.88;5114135;28;1019;-46
2021/12/28 05:29:36;;;;;;;;;;;;;;;4.21;85.39;94642.63;5114114;28;1079;-46
2021/12/28 05:32:02;;;;;;;;;;;;;;;4.27;85.26;94650.00;5113896;28;1006;-46
2021/12/28 05:34:28;;;;;;;;;;;;;;;4.20;84.84;94653.31;5113918;28;983;-45
2021/12/28 05:36:54;;;;;;;;;;;;;;;4.21;85.36;94649.69;5113954;28;1909;-46
2021/12/28 05:39:20;;;;;;;;;;;;;;;4.03;84.44;94644.22;5114302;28;1079;-46
2021/12/28 05:41:46;;;;;;;;;;;;;;;3.86;85.59;94645.69;5113717;28;1091;-46
2021/12/28 05:44:12;;;;;;;;;;;;;;;3.99;85.78;94648.94;5114017;28;976;-45
2021/12/28 05:46:38;;;;;;;;;;;;;;;4.06;85.58;94646.56;5113713;28;1031;-46
2021/12/28 05:49:04;;;;;;;;;;;;;;;3.93;84.66;94649.47;5113921;28;976;-46
2021/12/28 05:51:30;;;;;;;;;;;;;;;3.91;85.09;94644.31;5146847;27;1031;-45
2021/12/28 05:53:56;;;;;;;;;;;;;;;3.89;84.77;94656.00;5113715;28;1841;-45
2021/12/28 05:56:22;;;;;;;;;;;;;;;3.88;84.48;94657.78;5113728;28;987;-45
2021/12/28 05:58:48;;;;;;;;;;;;;;;3.79;84.20;94668.31;5113638;28;1914;-46
2021/12/28 06:01:15;;;;;;;;;;;;;;;3.67;84.18;94664.94;5113618;28;1048;-45
2021/12/28 06:03:41;;;;;;;;;;;;;;;3.66;84.11;94668.53;5113852;28;980;-45
2021/12/28 06:06:07;;;;;;;;;;;;;;;3.66;84.52;94674.69;5113361;28;972;-45
2021/12/28 06:08:33;;;;;;;;;;;;;;;3.64;84.01;94676.63;5113678;28;1974;-47
2021/12/28 06:10:59;;;;;;;;;;;;;;;3.50;84.47;94667.19;5113634;28;1153;-45
2021/12/28 06:13:25;;;;;;;;;;;;;;;3.59;83.99;94670.88;5113743;28;1255;-47
2021/12/28 06:15:51;;;;;;;;;;;;;;;3.52;82.32;94675.81;5113495;28;1079;-45
2021/12/28 06:18:17;;;;;;;;;;;;;;;3.41;83.27;94673.25;5115123;28;2000;-46
2021/12/28 06:20:43;;;;;;;;;;;;;;;3.43;83.52;94683.69;5117598;28;973;-45
2021/12/28 06:23:11;;;;;;;;;;;;;;;3.44;83.58;94682.75;5117422;28;1074;-45
2021/12/28 06:25:38;;;;;;;;;;;;;;;3.38;83.09;94680.59;5117579;28;1083;-45
2021/12/28 06:28:04;;;;;;;;;;;;;;;3.36;82.99;94685.16;5117668;28;987;-46
2021/12/28 06:30:31;;;;;;;;;;;;;;;3.55;84.38;94682.69;5117506;28;1273;-46
2021/12/28 06:32:56;;;;;;;;;;;;;;;3.73;83.78;94674.97;5117060;28;1023;-45
2021/12/28 06:35:22;;;;;;;;;;;;;;;3.90;84.10;94676.19;5117390;28;1051;-45
2021/12/28 06:37:48;;;;;;;;;;;;;;;3.98;82.86;94678.16;5117321;28;1910;-46
2021/12/28 06:40:15;;;;;;;;;;;;;;;3.97;81.62;94685.25;5117595;27;1040;-47
2021/12/28 06:42:41;;;;;;;;;;;;;;;4.03;81.63;94674.16;5117427;28;988;-47
2021/12/28 06:45:07;;;;;;;;;;;;;;;4.13;82.23;94682.13;5117216;28;1074;-45
2021/12/28 06:47:33;;;;;;;;;;;;;;;4.10;81.75;94685.88;5117269;28;1011;-45
2021/12/28 06:49:59;;;;;;;;;;;;;;;4.04;80.84;94682.91;5117339;28;1078;-45
2021/12/28 06:52:25;;;;;;;;;;;;;;;4.15;81.01;94682.81;5116926;28;1095;-45
2021/12/28 06:54:52;;;;;;;;;;;;;;;4.47;82.41;94687.94;5117020;28;1869;-47
2021/12/28 06:57:18;;;;;;;;;;;;;;;4.71;80.73;94689.41;5116893;28;1913;-47
2021/12/28 06:59:45;;;;;;;;;;;;;;;4.77;80.53;94694.13;5117105;28;971;-46
2021/12/28 07:02:12;;;;;;;;;;;;;;;4.58;78.82;94697.59;5116938;28;1052;-45
2021/12/28 07:04:38;;;;;;;;;;;;;;;4.52;80.06;94694.66;5117146;28;1028;-46
2021/12/28 07:07:05;;;;;;;;;;;;;;;4.63;79.97;94699.81;5117137;27;1079;-47
2021/12/28 07:09:31;;;;;;;;;;;;;;;4.63;79.88;94702.47;5116714;28;1007;-45
2021/12/28 07:11:58;;;;;;;;;;;;;;;4.73;78.79;94702.50;5116746;28;1172;-45
2021/12/28 07:14:24;;;;;;;;;;;;;;;5.01;79.06;94700.88;5116805;28;1284;-46
2021/12/28 07:16:50;;;;;;;;;;;;;;;5.54;77.56;94695.16;5116372;28;987;-46
2021/12/28 07:19:17;;;;;;;;;;;;;;;5.74;76.34;94700.41;5116616;28;1974;-47
2021/12/28 07:21:43;;;;;;;;;;;;;;;5.62;76.91;94694.44;5116709;28;1052;-47
2021/12/28 07:24:09;;;;;;;;;;;;;;;5.43;78.57;94700.59;5116283;28;1082;-46
2021/12/28 07:26:36;;;;;;;;;;;;;;;5.33;79.73;94694.44;5116650;28;1007;-46
2021/12/28 07:29:03;;;;;;;;;;;;;;;5.43;80.04;94697.94;5115057;28;1960;-46
2021/12/28 07:31:29;;;;;;;;;;;;;;;5.62;80.24;94699.75;5116148;28;1051;-47
2021/12/28 07:33:55;;;;;;;;;;;;;;;5.91;79.47;94696.19;5116194;28;1003;-47
2021/12/28 07:36:21;;;;;;;;;;;;;;;6.09;78.80;94697.16;5116571;28;1056;-46
2021/12/28 07:38:48;;;;;;;;;;;;;;;6.16;78.70;94694.75;5115902;28;1990;-46
2021/12/28 07:41:14;;;;;;;;;;;;;;;6.49;77.84;94696.00;5116158;28;1040;-47
2021/12/28 07:43:41;;;;;;;;;;;;;;;6.84;76.47;94697.91;5115983;28;1023;-45
2021/12/28 07:46:07;;;;;;;;;;;;;;;6.96;76.71;94701.19;5115910;28;1015;-46
2021/12/28 07:48:34;;;;;;;;;;;;;;;7.26;75.91;94695.66;5115749;28;956;-47
2021/12/28 07:51:00;;;;;;;;;;;;;;;7.35;75.47;94695.59;5115704;28;1015;-46
2021/12/28 07:53:26;;;;;;;;;;;;;;;7.25;76.04;94692.19;5115953;28;988;-46
2021/12/28 07:55:52;;;;;;;;;;;;;;;7.27;76.12;94682.22;5115989;28;1082;-45
2021/12/28 07:58:18;;;;;;;;;;;;;;;7.27;76.51;94682.22;5115641;28;1996;-46
2021/12/28 08:00:44;;;;;;;;;;;;;;;7.28;76.44;94683.88;5115721;28;1050;-46
2021/12/28 08:03:10;;;;;;;;;;;;;;;7.35;76.91;94684.13;5115628;28;1039;-46
2021/12/28 08:05:37;;;;;;;;;;;;;;;7.57;76.38;94686.31;5115685;28;1036;-45
2021/12/28 08:08:03;;;;;;;;;;;;;;;7.70;75.40;94687.72;5115426;28;1035;-46
2021/12/28 08:10:29;;;;;;;;;;;;;;;7.73;75.11;94695.41;5115662;28;1023;-47
2021/12/28 08:12:56;;;;;;;;;;;;;;;7.86;74.95;94695.00;5115640;28;1216;-45
2021/12/28 08:15:25;;;;;;;;;;;;;;;7.89;74.82;94687.53;5115244;28;1176;-46
2021/12/28 08:17:51;;;;;;;;;;;;;;;8.03;75.83;94699.44;5115132;28;1913;-45
2021/12/28 08:20:18;;;;;;;;;;;;;;;8.04;75.91;94692.28;5115638;28;987;-46
2021/12/28 08:22:45;;;;;;;;;;;;;;;7.91;76.68;94698.88;5115322;28;1861;-47
2021/12/28 08:25:12;;;;;;;;;;;;;;;7.76;77.19;94703.09;5115243;28;1060;-47
2021/12/28 08:27:39;;;;;;;;;;;;;;;7.66;77.65;94699.66;5115319;28;1055;-46
2021/12/28 08:30:06;;;;;;;;;;;;;;;7.45;78.43;94703.47;5115156;28;969;-46
2021/12/28 08:32:32;;;;;;;;;;;;;;;7.47;78.17;94704.16;5115108;28;1083;-45
2021/12/28 08:34:58;;;;;;;;;;;;;;;7.25;78.75;94700.16;5115153;28;983;-46
2021/12/28 08:37:24;;;;;;;;;;;;;;;7.04;79.98;94695.13;5115123;28;1981;-48
2021/12/28 08:39:50;;;;;;;;;;;;;;;6.80;80.72;94696.53;5114933;28;1048;-45
2021/12/28 08:42:16;;;;;;;;;;;;;;;6.72;81.65;94691.13;5114694;28;1055;-45
2021/12/28 08:44:43;;;;;;;;;;;;;;;6.62;82.04;94693.00;5114700;27;1038;-45
2021/12/28 08:47:09;;;;;;;;;;;;;;;6.54;82.68;94698.22;5115086;28;1027;-46
2021/12/28 08:49:35;;;;;;;;;;;;;;;6.49;82.29;94700.47;5115084;28;975;-46
2021/12/28 08:52:01;;;;;;;;;;;;;;;6.43;83.30;94696.56;5114939;28;951;-46
2021/12/28 08:54:27;;;;;;;;;;;;;;;6.50;82.78;94700.31;5114916;28;1040;-45
2021/12/28 08:56:53;;;;;;;;;;;;;;;6.56;82.70;94693.59;5114750;28;1048;-45
2021/12/28 08:59:19;;;;;;;;;;;;;;;6.73;81.95;94705.25;5114444;28;1914;-45
2021/12/28 09:01:47;;;;;;;;;;;;;;;6.92;82.22;94699.81;5114438;28;977;-46
2021/12/28 09:04:13;;;;;;;;;;;;;;;7.27;80.61;94687.53;5114700;28;1027;-46
2021/12/28 09:06:39;;;;;;;;;;;;;;;7.50;79.74;94689.72;5114458;28;1094;-45
2021/12/28 09:09:05;;;;;;;;;;;;;;;7.84;78.70;94681.03;5114491;28;980;-45
2021/12/28 09:11:31;;;;;;;;;;;;;;;8.13;78.07;94686.03;5114375;28;1157;-45
2021/12/28 09:13:57;;;;;;;;;;;;;;;8.46;76.95;94676.41;5113989;28;1296;-46
2021/12/28 09:16:23;;;;;;;;;;;;;;;9.05;75.02;94676.44;5114195;28;1078;-45
2021/12/28 09:18:49;;;;;;;;;;;;;;;9.65;72.54;94680.66;5114381;28;1995;-45
2021/12/28 09:21:16;;;;;;;;;;;;;;;9.55;72.68;94693.34;5114394;28;1082;-45
2021/12/28 09:23:42;;;;;;;;;;;;;;;9.48;73.38;94689.66;5114325;28;1060;-46
2021/12/28 09:26:08;;;;;;;;;;;;;;;10.12;71.14;94687.97;5114286;28;964;-45
2021/12/28 09:28:34;;;;;;;;;;;;;;;10.90;68.45;94685.59;5114419;28;940;-46
2021/12/28 09:31:01;;;;;;;;;;;;;;;11.29;66.45;94674.00;5113755;28;1943;-45
2021/12/28 09:33:27;;;;;;;;;;;;;;;12.04;64.45;94683.97;5114286;28;1058;-46
2021/12/28 09:35:53;;;;;;;;;;;;;;;12.36;63.41;94673.97;5113798;28;1036;-46
2021/12/28 09:38:20;;;;;;;;;;;;;;;12.15;63.73;94674.69;5113940;28;1910;-46
2021/12/28 09:40:47;;;;;;;;;;;;;;;11.51;65.81;94670.50;5113839;28;1047;-45
2021/12/28 09:43:13;;;;;;;;;;;;;;;11.84;64.95;94662.22;5114175;28;1044;-45
2021/12/28 09:45:39;;;;;;;;;;;;;;;12.09;63.91;94662.03;5113869;28;1060;-46
2021/12/28 09:48:07;;;;;;;;;;;;;;;12.84;61.51;94665.53;5114140;28;1001;-46
2021/12/28 09:50:34;;;;;;;;;;;;;;;13.77;59.09;94658.56;5114047;28;971;-46
2021/12/28 09:53:00;;;;;;;;;;;;;;;14.31;57.08;94654.44;5112953;28;1110;-46
2021/12/28 09:55:27;;;;;;;;;;;;;;;14.27;57.59;94657.72;5112410;28;1079;-45
2021/12/28 09:57:53;;;;;;;;;;;;;;;14.49;56.25;94656.59;5113583;28;1913;-46
2021/12/28 10:00:20;;;;;;;;;;;;;;;14.96;55.51;94659.59;5113718;28;1044;-45
2021/12/28 10:02:47;;;;;;;;;;;;;;;16.02;52.62;94650.97;5113976;28;1043;-46
2021/12/28 10:05:14;;;;;;;;;;;;;;;16.42;51.19;94650.94;5113702;28;1204;-46
2021/12/28 10:07:48;;;;;;;;;;;;;;;15.91;52.24;94646.19;5113647;28;1020;-45
2021/12/28 10:10:15;;;;;;;;;;;;;;;15.11;54.78;94641.41;5113534;28;1007;-45
2021/12/28 10:12:43;;;;;;;;;;;;;;;14.71;55.71;94641.25;5113419;28;1180;-45
2021/12/28 10:15:12;;;;;;;;;;;;;;;14.47;55.95;94637.13;5113181;28;1310;-46
2021/12/28 10:17:39;;;;;;;;;;;;;;;13.93;58.05;94638.63;5113731;28;1996;-46
2021/12/28 10:20:08;;;;;;;;;;;;;;;13.57;59.38;94630.66;5113341;28;1079;-46
2021/12/28 10:22:36;;;;;;;;;;;;;;;13.62;59.32;94637.13;5113669;28;969;-46
2021/12/28 10:25:14;;;;;;;;;;;;;;;14.68;56.70;94624.66;5113310;28;1964;-46
2021/12/28 10:27:42;;;;;;;;;;;;;;;16.09;53.34;94624.84;5113705;28;1051;-46
2021/12/28 10:30:12;;;;;;;;;;;;;;;17.60;49.02;94633.72;5113816;28;959;-46
2021/12/28 10:32:40;;;;;;;;;;;;;;;18.39;46.30;94620.66;5113645;28;972;-47
2021/12/28 10:35:08;;;;;;;;;;;;;;;18.22;46.69;94623.09;5113495;28;984;-46
2021/12/28 10:37:36;;;;;;;;;;;;;;;18.18;46.01;94615.66;5113611;28;1909;-46
2021/12/28 10:40:06;;;;;;;;;;;;;;;18.68;45.14;94611.00;5113576;28;1056;-46
2021/12/28 10:42:52;;;;;;;;;;;;;;;17.74;46.51;94602.03;5113559;28;1048;-47
2021/12/28 10:45:26;;;;;;;;;;;;;;;17.76;46.93;94597.25;5113213;28;972;-47
2021/12/28 10:47:53;;;;;;;;;;;;;;;18.95;44.72;94609.91;5113628;28;1015;-47
2021/12/28 10:50:22;;;;;;;;;;;;;;;18.69;44.83;94601.03;5113469;28;1017;-47
2021/12/28 10:52:51;;;;;;;;;;;;;;;17.56;47.18;94602.78;5113506;28;980;-47
2021/12/28 10:55:17;;;;;;;;;;;;;;;16.81;49.32;94597.94;5113423;28;1036;-47
2021/12/28 10:57:43;;;;;;;;;;;;;;;16.70;49.82;94603.97;5112967;28;1906;-46
2021/12/28 11:00:20;;;;;;;;;;;;;;;17.59;47.61;94599.63;5113150;28;1008;-47
2021/12/28 11:02:46;;;;;;;;;;;;;;;18.32;45.80;94599.06;5113050;28;1026;-46
2021/12/28 11:05:32;;;;;;;;;;;;;;;18.14;45.68;94594.47;5116218;28;1148;-46
2021/12/28 11:07:58;;;;;;;;;;;;;;;16.04;50.48;94589.56;5116735;28;1015;-46
2021/12/28 11:10:27;;;;;;;;;;;;;;;14.48;54.76;94590.41;5116784;27;1039;-46
2021/12/28 11:12:57;;;;;;;;;;;;;;;13.40;58.41;94582.59;5116461;28;1215;-46
2021/12/28 11:15:25;;;;;;;;;;;;;;;12.49;61.08;94585.69;5116421;28;1199;-45
2021/12/28 11:17:51;;;;;;;;;;;;;;;12.26;61.92;94585.78;5116301;28;1910;-45
2021/12/28 11:20:28;;;;;;;;;;;;;;;12.04;63.18;94581.34;5116802;28;1016;-45
2021/12/28 11:23:11;;;;;;;;;;;;;;;11.80;64.19;94577.03;5116627;28;969;-45
2021/12/28 11:25:37;;;;;;;;;;;;;;;11.75;64.33;94577.59;5116512;28;1106;-45
2021/12/28 11:28:18;;;;;;;;;;;;;;;11.77;64.24;94569.38;5116283;27;1020;-45
2021/12/28 11:31:01;;;;;;;;;;;;;;;11.75;64.79;94574.91;5116172;28;1043;-46
2021/12/28 11:33:40;;;;;;;;;;;;;;;12.13;63.34;94574.06;5116495;28;1088;-45
2021/12/28 11:36:06;;;;;;;;;;;;;;;12.22;63.58;94576.47;5116114;28;1055;-46
2021/12/28 11:38:33;;;;;;;;;;;;;;;12.49;62.56;94563.41;5116655;28;1906;-45
2021/12/28 11:40:59;;;;;;;;;;;;;;;13.03;61.45;94571.06;5116201;28;984;-45
2021/12/28 11:43:26;;;;;;;;;;;;;;;13.36;60.54;94559.84;5116466;28;992;-45
2021/12/28 11:45:52;;;;;;;;;;;;;;;13.39;60.39;94561.28;5115850;28;1028;-46
2021/12/28 11:48:18;;;;;;;;;;;;;;;13.17;60.99;94555.09;5116130;27;1053;-46
2021/12/28 11:50:44;;;;;;;;;;;;;;;12.82;62.00;94560.28;5116164;28;996;-45
2021/12/28 11:53:14;;;;;;;;;;;;;;;12.42;62.71;94563.31;5116001;27;1040;-45
2021/12/28 11:55:42;;;;;;;;;;;;;;;12.12;63.64;94557.13;5116143;28;1060;-45
2021/12/28 11:58:09;;;;;;;;;;;;;;;11.91;64.06;94555.19;5115580;28;1909;-46
2021/12/28 12:00:39;;;;;;;;;;;;;;;11.94;64.55;94557.50;5115852;28;1067;-46
2021/12/28 12:03:06;;;;;;;;;;;;;;;11.91;64.62;94555.19;5115500;28;1197;-48
2021/12/28 12:05:33;;;;;;;;;;;;;;;11.96;64.42;94551.97;5115937;28;1011;-46
2021/12/28 12:08:05;;;;;;;;;;;;;;;11.81;65.00;94547.41;5115698;28;984;-45
2021/12/28 12:10:32;;;;;;;;;;;;;;;11.81;65.18;94538.53;5115592;28;1031;-45
2021/12/28 12:13:00;;;;;;;;;;;;;;;11.89;65.05;94544.69;5115234;28;1157;-45
2021/12/28 12:15:34;;;;;;;;;;;;;;;12.00;64.51;94542.53;5114624;28;1414;-45
2021/12/28 12:18:02;;;;;;;;;;;;;;;12.06;63.76;94534.59;5115132;28;1988;-47
2021/12/28 12:20:31;;;;;;;;;;;;;;;12.08;64.72;94539.75;5115651;28;1019;-47
2021/12/28 12:23:12;;;;;;;;;;;;;;;12.07;63.27;94536.25;5115072;28;1032;-48
2021/12/28 12:25:41;;;;;;;;;;;;;;;12.00;63.57;94537.19;5115449;28;1062;-47
2021/12/28 12:28:08;;;;;;;;;;;;;;;11.91;64.76;94537.28;5115155;28;1059;-47
2021/12/28 12:30:34;;;;;;;;;;;;;;;11.92;65.50;94532.75;5115096;28;1070;-47
2021/12/28 12:33:05;;;;;;;;;;;;;;;11.93;64.67;94533.56;5114922;28;1032;-46
2021/12/28 12:35:32;;;;;;;;;;;;;;;11.91;65.19;94528.41;5115394;28;1067;-47
2021/12/28 12:37:59;;;;;;;;;;;;;;;11.91;64.70;94533.75;5115090;28;1910;-45
2021/12/28 12:40:50;;;;;;;;;;;;;;;11.88;65.51;94529.56;5115158;28;1056;-47
2021/12/28 12:43:16;;;;;;;;;;;;;;;11.84;65.97;94535.50;5115059;28;1064;-46
2021/12/28 12:45:51;;;;;;;;;;;;;;;11.79;65.31;94530.69;5114942;28;1074;-46
2021/12/28 12:48:46;;;;;;;;;;;;;;;11.77;65.93;94530.03;5114864;28;969;-47
2021/12/28 12:51:25;;;;;;;;;;;;;;;11.71;65.72;94522.75;5097253;28;1868;-47
2021/12/28 12:53:54;;;;;;;;;;;;;;;11.71;65.90;94525.41;5114810;28;1043;-46
2021/12/28 12:56:21;;;;;;;;;;;;;;;11.67;66.27;94524.94;5114993;28;980;-47
2021/12/28 12:58:48;;;;;;;;;;;;;;;11.65;66.14;94518.94;5114257;28;1910;-46
2021/12/28 13:01:27;;;;;;;;;;;;;;;11.64;66.17;94521.81;5114779;28;980;-47
2021/12/28 13:03:57;;;;;;;;;;;;;;;11.63;66.41;94512.94;5114396;28;1042;-46
2021/12/28 13:06:41;;;;;;;;;;;;;;;11.64;66.82;94524.47;5114513;28;1007;-46
2021/12/28 13:09:09;;;;;;;;;;;;;;;11.63;66.43;94520.13;5114386;28;1948;-46
2021/12/28 13:11:36;;;;;;;;;;;;;;;11.65;65.36;94518.94;5114637;28;1203;-47